Time;durP1;ratioP1;P1;durP2;ratioP2;P2;SDS_P1;SDS_P2;PMS_P1;PMS_P2;Temp;Humidity;BMP_temperature;BMP_pressure;BME280_temperature;BME280_humidity;BME280_pressure;Samples;Min_cycle;Max_cycle;Signal;HPM_P1;HPM_P2
2023/03/10 00:00:41;;;;;;;23.20;15.02;;;5.50;99.90;;;;;;2088494;28;20140;-79
2023/03/10 00:01:42;;;;;;;23.27;14.50;;;5.50;99.90;;;;;;2084230;28;20388;-78
2023/03/10 00:02:48;;;;;;;22.85;13.48;;;5.50;99.90;;;;;;2086479;28;20531;-78
2023/03/10 00:03:49;;;;;;;21.52;13.30;;;5.50;99.90;;;;;;2086254;28;20519;-79
2023/03/10 00:04:51;;;;;;;20.48;12.85;;;5.50;99.90;;;;;;2087269;28;20032;-78
2023/03/10 00:05:52;;;;;;;19.92;12.88;;;5.50;99.90;;;;;;2087078;28;20143;-79
2023/03/10 00:06:52;;;;;;;18.92;12.88;;;5.50;99.90;;;;;;2087179;28;20032;-77
2023/03/10 00:07:53;;;;;;;20.48;12.90;;;5.50;99.90;;;;;;2087012;28;20324;-78
2023/03/10 00:08:54;;;;;;;21.08;12.57;;;5.50;99.90;;;;;;2081689;28;20024;-78
2023/03/10 00:09:55;;;;;;;20.65;12.48;;;5.60;99.90;;;;;;2074303;28;20426;-78
2023/03/10 00:10:55;;;;;;;19.48;12.40;;;5.50;99.90;;;;;;2090124;28;20634;-79
2023/03/10 00:11:56;;;;;;;19.40;12.20;;;5.60;99.90;;;;;;2084880;28;20028;-78
2023/03/10 00:12:56;;;;;;;20.13;12.10;;;5.60;99.90;;;;;;2090877;28;20056;-78
2023/03/10 00:13:57;;;;;;;18.38;11.90;;;5.60;99.90;;;;;;2084831;28;20089;-76
2023/03/10 00:14:57;;;;;;;20.02;12.30;;;5.60;99.90;;;;;;2079928;28;20025;-79
2023/03/10 00:15:58;;;;;;;23.17;13.15;;;5.70;99.90;;;;;;2087799;28;20021;-77
2023/03/10 00:16:59;;;;;;;20.63;12.20;;;5.70;99.90;;;;;;2087523;28;20036;-77
2023/03/10 00:17:59;;;;;;;19.63;11.77;;;5.70;99.90;;;;;;2073108;28;20037;-78
2023/03/10 00:19:00;;;;;;;19.35;11.60;;;5.80;99.90;;;;;;2077065;28;20485;-78
2023/03/10 00:20:00;;;;;;;19.55;11.45;;;5.80;99.90;;;;;;2087711;28;20029;-79
2023/03/10 00:21:01;;;;;;;19.88;10.73;;;5.80;99.90;;;;;;2078208;28;20026;-79
2023/03/10 00:22:02;;;;;;;18.60;10.95;;;5.80;99.90;;;;;;2078078;28;20029;-78
2023/03/10 00:23:03;;;;;;;16.90;10.88;;;5.80;99.90;;;;;;2078123;28;20582;-78
2023/03/10 00:24:03;;;;;;;18.92;10.23;;;5.90;99.90;;;;;;2086412;28;20024;-78
2023/03/10 00:25:06;;;;;;;18.73;10.40;;;5.90;99.90;;;;;;2086400;28;20035;-77
2023/03/10 00:26:10;;;;;;;17.85;10.80;;;5.90;99.90;;;;;;2086650;28;20028;-78
2023/03/10 00:27:10;;;;;;;15.30;10.15;;;5.90;99.90;;;;;;2088281;28;20066;-78
2023/03/10 00:28:11;;;;;;;14.32;9.38;;;6.00;99.90;;;;;;2090020;28;20047;-78
2023/03/10 00:29:12;;;;;;;16.75;9.15;;;6.00;99.90;;;;;;2090204;28;20402;-77
2023/03/10 00:30:13;;;;;;;15.77;8.70;;;6.00;99.90;;;;;;2076671;28;20053;-77
2023/03/10 00:31:17;;;;;;;17.58;9.40;;;6.00;99.90;;;;;;2087473;28;20053;-78
2023/03/10 00:32:18;;;;;;;15.68;8.65;;;6.00;99.90;;;;;;2090433;28;20123;-78
2023/03/10 00:33:18;;;;;;;15.45;8.30;;;6.10;99.90;;;;;;2087155;28;21643;-79
2023/03/10 00:34:19;;;;;;;14.88;8.10;;;6.00;99.90;;;;;;2086558;28;20052;-79
2023/03/10 00:35:20;;;;;;;13.45;7.80;;;6.00;99.90;;;;;;2078306;28;20040;-78
2023/03/10 00:36:23;;;;;;;11.05;7.38;;;6.00;99.90;;;;;;2079105;28;20061;-79
2023/03/10 00:37:24;;;;;;;12.00;7.50;;;6.00;99.90;;;;;;2082255;28;20710;-78
2023/03/10 00:38:24;;;;;;;14.05;7.40;;;6.00;99.90;;;;;;2084015;28;20101;-78
2023/03/10 00:39:25;;;;;;;19.23;8.88;;;6.00;99.90;;;;;;2081652;28;20044;-79
2023/03/10 00:40:25;;;;;;;19.92;7.43;;;6.00;99.90;;;;;;2082990;28;20037;-78
2023/03/10 00:41:29;;;;;;;20.10;7.97;;;6.10;99.90;;;;;;2088488;28;20037;-79
2023/03/10 00:42:30;;;;;;;21.08;7.78;;;6.10;99.90;;;;;;2084578;28;20029;-78
2023/03/10 00:43:31;;;;;;;19.77;7.32;;;6.10;99.90;;;;;;2086092;28;20116;-79
2023/03/10 00:44:31;;;;;;;18.02;7.72;;;6.10;99.90;;;;;;2072827;28;20091;-78
2023/03/10 00:45:34;;;;;;;12.98;7.38;;;6.20;99.90;;;;;;2076602;28;20029;-78
2023/03/10 00:46:37;;;;;;;12.93;6.97;;;6.20;99.90;;;;;;2088029;28;20165;-78
2023/03/10 00:47:37;;;;;;;14.02;7.00;;;6.20;99.90;;;;;;2081809;28;20661;-78
2023/03/10 00:48:38;;;;;;;12.80;6.40;;;6.20;99.90;;;;;;2082379;28;20122;-78
2023/03/10 00:49:39;;;;;;;10.68;5.82;;;6.20;99.90;;;;;;2081801;28;20032;-78
2023/03/10 00:50:39;;;;;;;10.73;5.68;;;6.20;99.90;;;;;;2071583;28;20025;-78
2023/03/10 00:51:40;;;;;;;12.35;5.88;;;6.20;99.90;;;;;;2074500;28;20089;-79
2023/03/10 00:52:41;;;;;;;10.60;5.50;;;6.20;99.90;;;;;;2072818;28;20128;-80
2023/03/10 00:53:42;;;;;;;12.18;5.40;;;6.20;99.90;;;;;;2071601;28;20069;-79
2023/03/10 00:54:43;;;;;;;11.52;5.40;;;6.20;99.90;;;;;;2080280;28;20048;-79
2023/03/10 00:55:44;;;;;;;11.38;5.47;;;6.30;99.90;;;;;;2089619;28;20102;-79
2023/03/10 00:56:44;;;;;;;10.70;5.03;;;6.30;99.90;;;;;;2088634;28;20054;-79
2023/03/10 00:57:45;;;;;;;10.02;5.00;;;6.30;99.90;;;;;;2085934;28;20032;-78
2023/03/10 00:58:49;;;;;;;10.82;5.05;;;6.40;99.90;;;;;;2088347;28;20036;-79
2023/03/10 00:59:50;;;;;;;10.63;4.82;;;6.40;99.90;;;;;;2085424;28;20027;-78
2023/03/10 01:00:51;;;;;;;12.20;5.07;;;6.40;99.90;;;;;;2088315;28;20020;-78
2023/03/10 01:01:51;;;;;;;12.85;5.55;;;6.40;99.90;;;;;;2086420;28;20032;-79
2023/03/10 01:02:52;;;;;;;10.77;5.13;;;6.50;99.90;;;;;;2085973;28;20025;-78
2023/03/10 01:03:55;;;;;;;10.48;4.80;;;6.50;99.90;;;;;;2086212;28;20511;-78
2023/03/10 01:04:56;;;;;;;9.80;4.55;;;6.50;99.90;;;;;;2087269;28;20036;-80
2023/03/10 01:05:57;;;;;;;9.95;4.40;;;6.50;99.90;;;;;;2086732;28;20025;-77
2023/03/10 01:06:57;;;;;;;8.43;4.22;;;6.50;99.90;;;;;;2079067;28;20028;-78
2023/03/10 01:07:58;;;;;;;8.52;4.55;;;6.50;99.90;;;;;;2080920;28;20048;-78
2023/03/10 01:08:59;;;;;;;11.02;4.20;;;6.60;99.90;;;;;;2079570;28;20029;-78
2023/03/10 01:10:00;;;;;;;9.48;4.45;;;6.50;99.90;;;;;;2078079;28;20056;-78
2023/03/10 01:11:00;;;;;;;6.28;3.90;;;6.50;99.90;;;;;;2083212;28;20784;-78
2023/03/10 01:12:01;;;;;;;9.00;4.10;;;6.60;99.90;;;;;;2080761;28;20606;-79
2023/03/10 01:13:02;;;;;;;9.95;4.38;;;6.60;99.90;;;;;;2078095;28;20025;-78
2023/03/10 01:14:04;;;;;;;11.45;4.60;;;6.60;99.90;;;;;;2078331;28;20041;-78
2023/03/10 01:15:05;;;;;;;10.73;4.70;;;6.60;99.90;;;;;;2087573;28;20029;-78
2023/03/10 01:16:06;;;;;;;8.35;4.68;;;6.60;99.90;;;;;;2085078;28;20071;-78
2023/03/10 01:17:07;;;;;;;12.05;5.05;;;6.60;99.90;;;;;;2081563;28;20139;-78
2023/03/10 01:18:08;;;;;;;9.68;4.45;;;6.70;99.90;;;;;;2081085;28;20071;-78
2023/03/10 01:19:08;;;;;;;10.88;4.43;;;6.70;99.90;;;;;;2079136;28;20032;-78
2023/03/10 01:20:13;;;;;;;9.30;4.13;;;6.70;99.90;;;;;;2086083;28;20021;-78
2023/03/10 01:21:19;;;;;;;9.95;4.60;;;6.70;99.90;;;;;;2085176;28;20666;-78
2023/03/10 01:22:19;;;;;;;10.43;4.63;;;6.80;99.90;;;;;;2084896;28;20056;-78
2023/03/10 01:23:22;;;;;;;13.43;4.22;;;6.70;99.90;;;;;;2080214;28;20033;-78
2023/03/10 01:24:23;;;;;;;9.10;4.45;;;6.80;99.90;;;;;;2081028;28;20037;-79
2023/03/10 01:25:24;;;;;;;9.85;4.28;;;6.80;99.90;;;;;;2088357;28;20032;-78
2023/03/10 01:26:25;;;;;;;9.77;4.20;;;6.80;99.90;;;;;;2086836;28;20028;-78
2023/03/10 01:27:26;;;;;;;11.45;4.25;;;6.80;99.90;;;;;;2087748;28;20045;-79
2023/03/10 01:28:27;;;;;;;9.73;4.13;;;6.80;99.90;;;;;;2083425;28;20078;-78
2023/03/10 01:29:28;;;;;;;10.30;4.00;;;6.90;99.90;;;;;;2089395;28;20024;-79
2023/03/10 01:30:29;;;;;;;9.88;3.53;;;6.80;99.90;;;;;;2085649;28;20040;-79
2023/03/10 01:31:30;;;;;;;10.27;3.90;;;6.90;99.90;;;;;;2087383;28;20127;-79
2023/03/10 01:32:30;;;;;;;11.55;3.75;;;6.90;99.90;;;;;;2087970;28;20638;-79
2023/03/10 01:33:32;;;;;;;12.27;4.05;;;6.90;99.90;;;;;;2088934;28;20039;-79
2023/03/10 01:34:33;;;;;;;9.75;3.50;;;6.90;99.90;;;;;;2091025;28;20103;-78
2023/03/10 01:35:34;;;;;;;11.32;3.90;;;6.90;99.90;;;;;;2080255;28;20512;-79
2023/03/10 01:36:35;;;;;;;11.50;3.72;;;6.90;99.90;;;;;;2090549;28;20029;-79
2023/03/10 01:37:35;;;;;;;8.85;3.80;;;6.90;99.90;;;;;;2090242;28;20115;-78
2023/03/10 01:38:37;;;;;;;9.77;3.63;;;6.90;99.90;;;;;;2086040;28;20041;-79
2023/03/10 01:39:37;;;;;;;9.07;3.80;;;6.90;99.90;;;;;;2090808;28;20036;-79
2023/03/10 01:40:39;;;;;;;10.85;3.88;;;7.00;99.90;;;;;;2088060;28;20474;-79
2023/03/10 01:41:41;;;;;;;9.48;3.47;;;6.90;99.90;;;;;;2079316;28;20424;-79
2023/03/10 01:42:42;;;;;;;8.65;3.42;;;6.90;99.90;;;;;;2086710;28;20036;-78
2023/03/10 01:43:45;;;;;;;8.48;3.55;;;6.90;99.90;;;;;;2086696;28;20102;-79
2023/03/10 01:45:21;;;;;;;7.47;3.42;;;6.90;99.90;;;;;;2086358;28;20120;-79
2023/03/10 01:46:33;;;;;;;6.90;2.83;;;6.90;99.90;;;;;;2047300;28;20122;-79
2023/03/10 01:47:37;;;;;;;7.05;3.13;;;7.00;99.90;;;;;;2042256;28;20035;-78
2023/03/10 01:48:39;;;;;;;8.02;3.15;;;6.90;99.90;;;;;;2056855;28;20131;-79
2023/03/10 01:49:44;;;;;;;6.13;2.92;;;6.90;99.90;;;;;;2078738;28;20068;-78
2023/03/10 01:50:47;;;;;;;8.13;2.95;;;7.00;99.90;;;;;;2086063;28;20025;-78
2023/03/10 01:51:54;;;;;;;8.57;3.33;;;7.00;99.90;;;;;;2086264;28;20601;-78
2023/03/10 01:52:57;;;;;;;9.80;3.38;;;7.00;99.90;;;;;;2086880;28;20047;-78
2023/03/10 01:53:58;;;;;;;6.82;3.40;;;7.00;99.90;;;;;;2079708;28;20078;-77
2023/03/10 01:55:21;;;;;;;8.77;3.75;;;7.00;99.90;;;;;;2089897;28;20040;-77
2023/03/10 01:56:21;;;;;;;9.52;3.30;;;7.00;99.90;;;;;;2086153;28;20028;-78
2023/03/10 01:57:36;;;;;;;9.35;3.63;;;7.00;99.90;;;;;;2078023;28;20029;-77
2023/03/10 01:58:43;;;;;;;7.72;3.40;;;7.00;99.90;;;;;;2080992;28;20025;-77
2023/03/10 01:59:44;;;;;;;9.30;3.50;;;7.00;99.90;;;;;;2080393;28;20037;-78
2023/03/10 02:00:45;;;;;;;11.13;3.15;;;7.00;99.90;;;;;;2077417;28;20048;-78
2023/03/10 02:01:46;;;;;;;13.68;4.18;;;7.00;99.90;;;;;;2070205;28;20745;-78
2023/03/10 02:03:06;;;;;;;16.73;3.85;;;7.00;99.90;;;;;;2071164;28;20328;-78
2023/03/10 02:04:14;;;;;;;10.33;3.47;;;7.00;99.90;;;;;;2072890;28;20046;-78
2023/03/10 02:05:16;;;;;;;11.02;3.60;;;7.00;99.90;;;;;;2082579;28;20279;-77
2023/03/10 02:06:19;;;;;;;9.75;3.30;;;7.00;99.90;;;;;;2084618;28;20124;-78
2023/03/10 02:07:25;;;;;;;8.35;3.20;;;7.00;99.90;;;;;;2068858;28;20041;-72
2023/03/10 02:08:30;;;;;;;8.18;2.97;;;7.00;99.90;;;;;;2075636;28;20045;-72
2023/03/10 02:09:35;;;;;;;8.77;3.10;;;7.00;99.90;;;;;;2077107;28;20035;-72
2023/03/10 02:10:36;;;;;;;11.80;3.80;;;7.00;99.90;;;;;;2081175;28;20040;-72
2023/03/10 02:11:38;;;;;;;10.57;3.75;;;7.00;99.90;;;;;;2082630;28;20948;-72
2023/03/10 02:12:38;;;;;;;9.85;3.47;;;7.10;99.90;;;;;;2092865;28;20040;-72
2023/03/10 02:13:39;;;;;;;8.45;3.45;;;7.00;99.90;;;;;;2091830;28;20032;-73
2023/03/10 02:14:41;;;;;;;8.45;3.10;;;7.10;99.90;;;;;;2091588;28;20550;-73
2023/03/10 02:15:42;;;;;;;7.90;3.00;;;7.10;99.90;;;;;;2090826;28;20025;-73
2023/03/10 02:16:43;;;;;;;10.65;3.40;;;7.10;99.90;;;;;;2086620;28;20491;-74
2023/03/10 02:17:45;;;;;;;13.07;3.30;;;7.10;99.90;;;;;;2093583;28;20111;-73
2023/03/10 02:18:47;;;;;;;10.07;3.97;;;7.10;99.90;;;;;;2091537;28;20107;-73
2023/03/10 02:20:06;;;;;;;10.05;3.05;;;7.10;99.90;;;;;;2091584;28;20043;-74
2023/03/10 02:21:31;;;;;;;7.68;3.13;;;7.10;99.90;;;;;;2090447;28;20039;-73
2023/03/10 02:22:32;;;;;;;8.00;2.97;;;7.10;99.90;;;;;;2093270;28;20039;-73
2023/03/10 02:23:56;;;;;;;8.40;3.30;;;7.10;99.90;;;;;;2091865;28;20071;-73
2023/03/10 02:25:21;;;;;;;7.55;2.97;;;7.10;99.90;;;;;;2084230;28;20040;-73
2023/03/10 02:26:32;;;;;;;10.90;3.42;;;7.20;99.90;;;;;;2082256;28;20016;-73
2023/03/10 02:27:35;;;;;;;8.75;3.00;;;7.20;99.90;;;;;;2079731;28;20029;-73
2023/03/10 02:28:36;;;;;;;9.73;3.38;;;7.20;99.90;;;;;;2080774;28;20471;-73
2023/03/10 02:29:45;;;;;;;7.45;2.97;;;7.20;99.90;;;;;;2082554;28;20064;-73
2023/03/10 02:30:48;;;;;;;10.10;3.28;;;7.20;99.90;;;;;;2083936;28;20075;-73
2023/03/10 02:31:49;;;;;;;12.07;2.80;;;7.20;99.90;;;;;;2090142;28;20582;-73
2023/03/10 02:32:57;;;;;;;8.77;2.72;;;7.40;99.90;;;;;;2090802;28;20031;-73
2023/03/10 02:33:59;;;;;;;9.15;2.75;;;7.60;99.90;;;;;;2091004;28;20892;-73
2023/03/10 02:35:00;;;;;;;10.45;2.40;;;7.90;99.90;;;;;;2086857;28;20025;-73
2023/03/10 02:36:03;;;;;;;7.82;2.70;;;8.00;99.90;;;;;;2075647;28;20029;-72
2023/03/10 02:37:04;;;;;;;8.88;2.38;;;8.10;99.90;;;;;;2084703;28;20029;-72
2023/03/10 02:38:05;;;;;;;6.80;2.60;;;8.30;99.90;;;;;;2083556;28;20052;-73
2023/03/10 02:39:05;;;;;;;11.00;2.45;;;8.50;99.90;;;;;;2082314;28;20029;-73
2023/03/10 02:40:31;;;;;;;8.93;2.58;;;8.60;99.90;;;;;;2080401;28;20056;-72
2023/03/10 02:41:36;;;;;;;9.18;2.58;;;8.80;99.90;;;;;;2083372;28;20035;-72
2023/03/10 02:42:38;;;;;;;8.48;2.60;;;8.90;99.90;;;;;;2083145;28;20025;-72
2023/03/10 02:43:38;;;;;;;8.85;2.28;;;8.90;99.90;;;;;;2075861;28;20029;-72
2023/03/10 02:45:02;;;;;;;7.68;2.60;;;9.00;99.90;;;;;;2079447;28;20116;-71
2023/03/10 02:46:05;;;;;;;6.57;2.40;;;9.10;99.90;;;;;;2082469;28;20040;-72
2023/03/10 02:47:09;;;;;;;8.30;3.00;;;9.10;99.90;;;;;;2078013;28;20025;-72
2023/03/10 02:48:13;;;;;;;8.40;3.03;;;9.20;99.90;;;;;;2082134;28;20761;-73
2023/03/10 02:49:16;;;;;;;6.97;2.90;;;9.20;99.90;;;;;;2082595;28;20036;-72
2023/03/10 02:50:19;;;;;;;8.48;2.70;;;9.20;99.90;;;;;;2090771;28;20588;-73
2023/03/10 02:51:27;;;;;;;7.13;2.72;;;9.10;99.90;;;;;;2083306;28;20028;-73
2023/03/10 02:52:38;;;;;;;7.05;2.60;;;9.10;99.90;;;;;;2073678;28;20040;-74
2023/03/10 02:53:39;;;;;;;8.77;2.70;;;9.10;99.90;;;;;;2080791;28;20036;-73
2023/03/10 02:54:40;;;;;;;6.97;2.30;;;9.00;99.90;;;;;;2084408;28;20513;-72
2023/03/10 02:55:40;;;;;;;10.85;2.45;;;9.10;99.90;;;;;;2090066;28;20637;-72
2023/03/10 02:56:41;;;;;;;8.73;2.55;;;9.10;99.90;;;;;;2082154;28;20028;-73
2023/03/10 02:57:42;;;;;;;8.50;2.90;;;9.10;99.90;;;;;;2082236;28;20052;-72
2023/03/10 02:58:43;;;;;;;9.38;2.42;;;9.10;99.90;;;;;;2076097;28;20421;-73
2023/03/10 02:59:43;;;;;;;8.27;2.70;;;9.00;99.90;;;;;;2085434;28;20605;-72
2023/03/10 03:00:46;;;;;;;8.75;2.53;;;9.00;99.90;;;;;;2088890;28;20039;-73
2023/03/10 03:01:48;;;;;;;8.60;2.60;;;9.00;99.90;;;;;;2090109;28;20091;-73
2023/03/10 03:02:51;;;;;;;7.28;2.60;;;9.00;99.90;;;;;;2081985;28;20120;-73
2023/03/10 03:03:52;;;;;;;8.77;2.67;;;9.00;99.90;;;;;;2076216;28;20021;-72
2023/03/10 03:04:53;;;;;;;7.95;2.40;;;8.90;99.90;;;;;;2074071;28;20056;-73
2023/03/10 03:05:53;;;;;;;7.18;2.17;;;8.90;99.90;;;;;;2069344;28;20025;-73
2023/03/10 03:06:54;;;;;;;8.30;2.50;;;8.90;99.90;;;;;;2082188;28;20061;-72
2023/03/10 03:07:55;;;;;;;8.35;2.42;;;8.90;99.90;;;;;;2081851;28;20094;-73
2023/03/10 03:08:57;;;;;;;7.00;2.83;;;8.90;99.90;;;;;;2078802;28;20106;-74
2023/03/10 03:09:59;;;;;;;7.05;2.55;;;8.90;99.90;;;;;;2082399;28;20112;-74
2023/03/10 03:11:00;;;;;;;7.82;2.70;;;8.90;99.90;;;;;;2084138;28;20079;-73
2023/03/10 03:12:00;;;;;;;10.05;2.20;;;8.80;99.90;;;;;;2090927;28;20035;-74
2023/03/10 03:13:02;;;;;;;8.50;2.80;;;8.80;99.90;;;;;;2090306;28;20024;-74
2023/03/10 03:14:03;;;;;;;8.27;2.70;;;8.80;99.90;;;;;;2082384;28;20032;-72
2023/03/10 03:15:05;;;;;;;6.35;2.35;;;8.80;99.90;;;;;;2092406;28;20056;-73
2023/03/10 03:16:08;;;;;;;7.97;2.70;;;8.80;99.90;;;;;;2082485;28;20029;-73
2023/03/10 03:17:10;;;;;;;6.18;2.47;;;8.70;99.90;;;;;;2089381;28;20028;-73
2023/03/10 03:18:10;;;;;;;7.60;2.45;;;8.70;99.90;;;;;;2091145;28;20468;-73
2023/03/10 03:19:11;;;;;;;8.25;2.50;;;8.70;99.90;;;;;;2087458;28;20164;-73
2023/03/10 03:20:14;;;;;;;6.95;2.55;;;8.70;99.90;;;;;;2077299;28;20032;-73
2023/03/10 03:21:16;;;;;;;7.72;2.50;;;8.70;99.90;;;;;;2081116;28;20033;-73
2023/03/10 03:22:17;;;;;;;6.53;2.60;;;8.70;99.90;;;;;;2090396;28;20039;-74
2023/03/10 03:23:19;;;;;;;9.35;2.40;;;8.70;99.90;;;;;;2092238;28;20024;-73
2023/03/10 03:24:20;;;;;;;6.65;2.22;;;8.70;99.90;;;;;;2090558;28;20025;-73
2023/03/10 03:25:22;;;;;;;6.93;2.38;;;8.70;99.90;;;;;;2074095;28;20033;-73
2023/03/10 03:26:25;;;;;;;8.10;2.33;;;8.70;99.90;;;;;;2074132;28;20033;-73
2023/03/10 03:27:31;;;;;;;7.88;2.55;;;8.70;99.90;;;;;;2078135;28;20032;-73
2023/03/10 03:28:32;;;;;;;9.68;2.50;;;8.70;99.90;;;;;;2083844;28;20424;-72
2023/03/10 03:29:32;;;;;;;5.35;2.10;;;8.80;99.90;;;;;;2073915;28;20737;-73
2023/03/10 03:30:33;;;;;;;6.32;2.47;;;8.80;99.90;;;;;;2090056;28;20037;-72
2023/03/10 03:31:34;;;;;;;5.82;2.25;;;8.80;99.90;;;;;;2090315;28;20063;-73
2023/03/10 03:32:41;;;;;;;5.60;2.60;;;8.80;99.90;;;;;;2090360;28;20108;-73
2023/03/10 03:33:42;;;;;;;7.90;2.28;;;8.80;99.90;;;;;;2081941;28;20043;-73
2023/03/10 03:34:43;;;;;;;7.68;2.58;;;8.80;99.90;;;;;;2075859;28;20428;-73
2023/03/10 03:35:44;;;;;;;5.60;2.22;;;8.80;99.90;;;;;;2086505;28;20040;-73
2023/03/10 03:36:45;;;;;;;9.90;2.35;;;8.80;99.90;;;;;;2073856;28;20735;-73
2023/03/10 03:37:50;;;;;;;5.43;2.35;;;8.70;99.90;;;;;;2074184;28;20591;-73
2023/03/10 03:38:50;;;;;;;8.43;2.50;;;8.70;99.90;;;;;;2088617;28;20432;-71
2023/03/10 03:39:51;;;;;;;6.75;2.40;;;8.70;99.90;;;;;;2090561;28;20028;-74
2023/03/10 03:40:52;;;;;;;6.55;2.42;;;8.70;99.90;;;;;;2082112;28;20075;-74
2023/03/10 03:41:56;;;;;;;6.70;2.40;;;8.60;99.90;;;;;;2081825;28;20029;-74
2023/03/10 03:42:59;;;;;;;7.40;2.60;;;8.60;99.90;;;;;;2073988;28;20037;-74
2023/03/10 03:44:00;;;;;;;6.05;2.38;;;8.70;99.90;;;;;;2080366;28;20060;-73
2023/03/10 03:45:01;;;;;;;6.32;2.40;;;8.70;99.90;;;;;;2081691;28;20012;-73
2023/03/10 03:46:03;;;;;;;8.20;2.50;;;8.70;99.90;;;;;;2091846;28;20143;-73
2023/03/10 03:47:04;;;;;;;8.55;2.42;;;8.70;99.90;;;;;;2088381;28;20032;-73
2023/03/10 03:48:05;;;;;;;7.43;2.30;;;8.70;99.90;;;;;;2089479;28;20094;-72
2023/03/10 03:49:07;;;;;;;5.72;2.42;;;8.60;99.90;;;;;;2088371;28;20024;-72
2023/03/10 03:50:11;;;;;;;4.95;2.25;;;8.70;99.90;;;;;;2082176;28;20021;-72
2023/03/10 03:51:12;;;;;;;7.95;2.58;;;8.70;99.90;;;;;;2080230;28;20033;-73
2023/03/10 03:52:15;;;;;;;5.63;2.30;;;8.70;99.90;;;;;;2075970;28;20025;-72
2023/03/10 03:53:15;;;;;;;7.65;2.72;;;8.70;99.90;;;;;;2073958;28;20583;-73
2023/03/10 03:54:16;;;;;;;5.18;2.30;;;8.70;99.90;;;;;;2082174;28;20079;-73
2023/03/10 03:55:18;;;;;;;6.15;2.35;;;8.70;99.90;;;;;;2081917;28;20029;-73
2023/03/10 03:56:20;;;;;;;7.13;2.70;;;8.70;99.90;;;;;;2082101;28;20566;-73
2023/03/10 03:57:21;;;;;;;6.65;2.47;;;8.70;99.90;;;;;;2083878;28;20111;-73
2023/03/10 03:58:22;;;;;;;6.57;2.30;;;8.80;99.90;;;;;;2090104;28;20351;-73
2023/03/10 03:59:24;;;;;;;7.57;2.45;;;8.80;99.90;;;;;;2081725;28;20496;-74
2023/03/10 04:00:25;;;;;;;6.03;2.40;;;8.80;99.90;;;;;;2073685;28;20072;-74
2023/03/10 04:01:33;;;;;;;6.68;2.50;;;8.80;99.90;;;;;;2088443;28;20232;-74
2023/03/10 04:02:39;;;;;;;5.47;2.55;;;8.80;99.90;;;;;;2089922;28;20198;-74
2023/03/10 04:03:42;;;;;;;7.80;2.67;;;8.80;99.90;;;;;;2089857;28;20032;-74
2023/03/10 04:04:46;;;;;;;7.57;2.50;;;8.80;99.90;;;;;;2089961;28;20016;-74
2023/03/10 04:05:49;;;;;;;6.95;2.28;;;8.80;99.90;;;;;;2084568;28;20523;-74
2023/03/10 04:06:49;;;;;;;7.40;2.63;;;8.80;99.90;;;;;;2081587;28;20614;-74
2023/03/10 04:07:51;;;;;;;5.07;2.60;;;8.80;99.90;;;;;;2089864;28;20128;-74
2023/03/10 04:08:53;;;;;;;5.05;2.30;;;8.80;99.90;;;;;;2079561;28;20122;-73
2023/03/10 04:09:56;;;;;;;6.97;2.50;;;8.80;99.90;;;;;;2083646;28;20112;-74
2023/03/10 04:10:57;;;;;;;5.60;2.53;;;8.80;99.90;;;;;;2081390;28;20063;-74
2023/03/10 04:12:00;;;;;;;7.88;2.80;;;8.80;99.90;;;;;;2081287;28;20033;-74
2023/03/10 04:13:01;;;;;;;6.85;2.40;;;8.80;99.90;;;;;;2088401;28;20037;-74
2023/03/10 04:14:02;;;;;;;5.82;2.22;;;8.80;99.90;;;;;;2081535;28;20037;-74
2023/03/10 04:15:03;;;;;;;5.22;2.30;;;8.70;99.90;;;;;;2080490;28;20017;-74
2023/03/10 04:16:04;;;;;;;5.95;2.38;;;8.70;99.90;;;;;;2081856;28;20428;-74
2023/03/10 04:17:08;;;;;;;5.75;2.38;;;8.70;99.90;;;;;;2083741;28;20040;-74
2023/03/10 04:18:09;;;;;;;6.15;2.35;;;8.70;99.90;;;;;;2073519;28;20332;-74
2023/03/10 04:19:10;;;;;;;4.07;2.20;;;8.70;99.90;;;;;;2073582;28;20029;-74
2023/03/10 04:20:16;;;;;;;4.72;2.03;;;8.70;99.90;;;;;;2082136;28;20052;-74
2023/03/10 04:21:20;;;;;;;4.57;2.20;;;8.60;99.90;;;;;;2089746;28;20020;-73
2023/03/10 04:22:23;;;;;;;4.78;2.10;;;8.60;99.90;;;;;;2075857;28;20064;-74
2023/03/10 04:23:24;;;;;;;5.93;2.47;;;8.60;99.90;;;;;;2081715;28;20392;-74
2023/03/10 04:24:25;;;;;;;6.18;2.25;;;8.60;99.90;;;;;;2081868;28;20028;-74
2023/03/10 04:25:26;;;;;;;8.27;2.60;;;8.60;99.90;;;;;;2081766;28;20056;-74
2023/03/10 04:26:26;;;;;;;6.47;2.25;;;8.60;99.90;;;;;;2089792;28;20144;-74
2023/03/10 04:27:27;;;;;;;6.93;2.22;;;8.60;99.90;;;;;;2091832;28;20052;-73
2023/03/10 04:28:28;;;;;;;6.13;2.35;;;8.70;99.90;;;;;;2089418;28;20024;-73
2023/03/10 04:29:29;;;;;;;7.70;2.70;;;8.70;99.90;;;;;;2089841;28;20050;-73
2023/03/10 04:30:31;;;;;;;5.90;2.45;;;8.70;99.90;;;;;;2089579;28;20040;-74
2023/03/10 04:31:35;;;;;;;4.30;2.20;;;8.70;99.90;;;;;;2089853;28;20029;-74
2023/03/10 04:32:36;;;;;;;6.18;2.42;;;8.70;99.90;;;;;;2079540;28;20021;-74
2023/03/10 04:33:37;;;;;;;6.25;2.70;;;8.80;99.90;;;;;;2073485;28;20025;-75
2023/03/10 04:34:40;;;;;;;5.88;2.95;;;8.80;99.90;;;;;;2073326;28;20088;-74
2023/03/10 04:35:42;;;;;;;5.80;2.55;;;8.80;99.90;;;;;;2072767;28;20699;-74
2023/03/10 04:36:44;;;;;;;6.18;2.30;;;8.80;99.90;;;;;;2088707;28;20529;-74
2023/03/10 04:37:44;;;;;;;6.80;2.35;;;8.80;99.90;;;;;;2089822;28;20024;-74
2023/03/10 04:38:45;;;;;;;6.15;2.40;;;8.80;99.90;;;;;;2089596;28;20029;-75
2023/03/10 04:39:47;;;;;;;3.78;2.20;;;8.80;99.90;;;;;;2083545;28;20017;-74
2023/03/10 04:40:53;;;;;;;6.38;2.42;;;8.80;99.90;;;;;;2086582;28;20043;-74
2023/03/10 04:41:54;;;;;;;3.95;2.28;;;8.80;99.90;;;;;;2089441;28;21260;-74
2023/03/10 04:42:55;;;;;;;5.30;2.15;;;8.80;99.90;;;;;;2081445;28;20028;-74
2023/03/10 04:43:56;;;;;;;4.47;1.95;;;8.80;99.90;;;;;;2090298;28;20024;-73
2023/03/10 04:44:57;;;;;;;10.80;2.38;;;8.80;99.90;;;;;;2091968;28;20752;-73
2023/03/10 04:45:58;;;;;;;4.78;2.25;;;8.80;99.90;;;;;;2081715;28;20540;-73
2023/03/10 04:47:00;;;;;;;5.03;2.10;;;8.80;99.90;;;;;;2081371;28;20776;-73
2023/03/10 04:48:00;;;;;;;4.45;2.30;;;8.80;99.90;;;;;;2086049;28;20112;-73
2023/03/10 04:49:01;;;;;;;5.60;2.17;;;8.80;99.90;;;;;;2077418;28;20471;-73
2023/03/10 04:50:04;;;;;;;4.50;2.40;;;8.80;99.90;;;;;;2072324;28;20042;-73
2023/03/10 04:51:08;;;;;;;6.50;2.60;;;8.80;99.90;;;;;;2078843;28;20025;-73
2023/03/10 04:52:13;;;;;;;6.28;2.30;;;8.90;99.90;;;;;;2077000;28;20783;-74
2023/03/10 04:53:14;;;;;;;6.03;2.20;;;8.90;99.90;;;;;;2089648;28;20070;-73
2023/03/10 04:54:15;;;;;;;4.32;2.10;;;8.90;99.90;;;;;;2081658;28;20652;-73
2023/03/10 04:55:16;;;;;;;5.07;2.17;;;8.90;99.90;;;;;;2081482;28;20542;-73
2023/03/10 04:56:17;;;;;;;6.13;2.20;;;9.00;99.90;;;;;;2083408;28;20032;-73
2023/03/10 04:57:18;;;;;;;4.80;1.90;;;9.00;99.90;;;;;;2081083;28;20033;-74
2023/03/10 04:58:20;;;;;;;4.80;1.95;;;8.90;99.90;;;;;;2081650;28;20028;-72
2023/03/10 04:59:21;;;;;;;5.40;2.22;;;8.90;99.90;;;;;;2082509;28;20531;-73
2023/03/10 05:00:25;;;;;;;4.65;1.75;;;9.00;99.90;;;;;;2080185;28;20033;-74
2023/03/10 05:01:31;;;;;;;4.47;2.00;;;9.00;99.90;;;;;;2069700;28;20052;-73
2023/03/10 05:02:35;;;;;;;3.88;2.10;;;9.00;99.90;;;;;;2085657;28;20036;-73
2023/03/10 05:03:37;;;;;;;5.78;2.22;;;9.00;99.90;;;;;;2083239;28;20061;-74
2023/03/10 05:04:40;;;;;;;5.63;2.28;;;9.00;99.90;;;;;;2082396;28;20088;-73
2023/03/10 05:05:40;;;;;;;5.03;2.13;;;9.10;99.90;;;;;;2089759;28;20180;-72
2023/03/10 05:06:41;;;;;;;4.93;2.13;;;9.10;99.90;;;;;;2079826;28;20037;-73
2023/03/10 05:07:56;;;;;;;4.45;2.25;;;9.20;99.90;;;;;;2081198;28;20016;-73
2023/03/10 05:08:57;;;;;;;4.05;1.90;;;9.20;99.90;;;;;;2081065;28;20503;-73
2023/03/10 05:09:58;;;;;;;5.90;2.20;;;9.30;99.90;;;;;;2087614;28;20024;-74
2023/03/10 05:11:05;;;;;;;3.95;1.90;;;9.20;99.90;;;;;;2080113;28;20120;-73
2023/03/10 05:12:06;;;;;;;4.45;2.35;;;9.20;99.90;;;;;;2078020;28;20025;-74
2023/03/10 05:13:12;;;;;;;5.70;2.00;;;9.30;99.90;;;;;;2078498;28;20025;-72
2023/03/10 05:14:15;;;;;;;4.57;2.25;;;9.30;99.90;;;;;;2068603;28;20112;-72
2023/03/10 05:15:16;;;;;;;4.63;1.88;;;9.30;99.90;;;;;;2083134;28;20063;-73
2023/03/10 05:16:20;;;;;;;3.78;2.20;;;9.30;99.90;;;;;;2089206;28;20641;-73
2023/03/10 05:17:21;;;;;;;5.35;1.90;;;9.30;99.90;;;;;;2073879;28;20026;-73
2023/03/10 05:18:22;;;;;;;5.05;1.90;;;9.30;99.90;;;;;;2073328;28;20022;-74
2023/03/10 05:19:25;;;;;;;4.22;2.15;;;9.30;99.90;;;;;;2083419;28;20029;-75
2023/03/10 05:20:27;;;;;;;3.80;1.88;;;9.30;99.90;;;;;;2081482;28;20041;-74
2023/03/10 05:21:27;;;;;;;4.63;1.90;;;9.30;99.90;;;;;;2089671;28;20088;-74
2023/03/10 05:22:30;;;;;;;4.82;1.80;;;9.20;99.90;;;;;;2083238;28;20033;-76
2023/03/10 05:23:31;;;;;;;4.18;1.92;;;9.20;99.90;;;;;;2076452;28;20033;-75
2023/03/10 05:24:32;;;;;;;3.58;2.08;;;9.30;99.90;;;;;;2079426;28;20051;-74
2023/03/10 05:25:32;;;;;;;6.72;2.00;;;9.20;99.90;;;;;;2081791;28;20029;-75
2023/03/10 05:26:34;;;;;;;4.63;2.03;;;9.20;99.90;;;;;;2088459;28;20090;-73
2023/03/10 05:27:36;;;;;;;4.40;1.92;;;9.20;99.90;;;;;;2073383;28;20684;-76
2023/03/10 05:28:37;;;;;;;5.20;2.30;;;9.20;99.90;;;;;;2083602;28;20062;-74